Time;durP1;ratioP1;P1;durP2;ratioP2;P2;SDS_P1;SDS_P2;PMS_P1;PMS_P2;Temp;Humidity;BMP_temperature;BMP_pressure;BME280_temperature;BME280_humidity;BME280_pressure;Samples;Min_cycle;Max_cycle;Signal;HPM_P1;HPM_P2
2022/03/04 00:00:04;;;;;;;;;;;;;;;;;;1035659;28;1616;-41
2022/03/04 00:00:43;;;;;;;;;;;;;;;;;;1039509;28;634;-41
2022/03/04 00:01:13;;;;;;;;;;;;;;;;;;1039068;28;1695;-41
2022/03/04 00:01:46;;;;;;;;;;;;;;;;;;1039691;28;889;-41
2022/03/04 00:02:17;;;;;;;;;;;;;;;;;;1039551;28;909;-41
2022/03/04 00:02:47;;;;;;;;;;;;;;;;;;1039621;28;992;-41
2022/03/04 00:03:17;;;;;;;;;;;;;;;;;;1039535;28;833;-41
2022/03/04 00:03:48;;;;;;;;;;;;;;;;;;1039590;28;893;-41
2022/03/04 00:04:18;;;;;;;;;;;;;;;;;;1039701;28;957;-41
2022/03/04 00:04:48;;;;;;;;;;;;;;;;;;1039419;28;1012;-41
2022/03/04 00:05:19;;;;;;;;;;;;;;;;;;1039688;28;850;-41
2022/03/04 00:05:49;;;;;;;;;;;;;;;;;;1039523;28;870;-41
2022/03/04 00:06:19;;;;;;;;;;;;;;;;;;1039694;28;913;-41
2022/03/04 00:06:50;;;;;;;;;;;;;;;;;;1039659;28;929;-41
2022/03/04 00:07:20;;;;;;;;;;;;;;;;;;1039567;28;882;-41
2022/03/04 00:07:50;;;;;;;;;;;;;;;;;;1039438;28;852;-42
2022/03/04 00:08:21;;;;;;;;;;;;;;;;;;1039794;28;799;-41
2022/03/04 00:08:51;;;;;;;;;;;;;;;;;;1038743;28;988;-42
2022/03/04 00:09:22;;;;;;;;;;;;;;;;;;1039745;28;890;-41
2022/03/04 00:09:52;;;;;;;;;;;;;;;;;;1039382;28;933;-41
2022/03/04 00:10:23;;;;;;;;;;;;;;;;;;1039765;28;807;-42
2022/03/04 00:10:53;;;;;;;;;;;;;;;;;;1039578;28;818;-42
2022/03/04 00:11:24;;;;;;;;;;;;;;;;;;1039628;28;838;-41
2022/03/04 00:11:54;;;;;;;;;;;;;;;;;;1039513;28;903;-42
2022/03/04 00:12:25;;;;;;;;;;;;;;;;;;1039715;28;914;-41
2022/03/04 00:12:55;;;;;;;;;;;;;;;;;;1039475;28;922;-41
2022/03/04 00:13:25;;;;;;;;;;;;;;;;;;1039731;28;1487;-41
2022/03/04 00:13:56;;;;;;;;;;;;;;;;;;1034823;28;1989;-42
2022/03/04 00:14:26;;;;;;;;;;;;;;;;;;1035321;28;822;-41
2022/03/04 00:14:56;;;;;;;;;;;;;;;;;;1035089;28;921;-41
2022/03/04 00:15:27;;;;;;;;;;;;;;;;;;1035257;28;862;-42
2022/03/04 00:15:57;;;;;;;;;;;;;;;;;;1039247;28;881;-41
2022/03/04 00:16:27;;;;;;;;;;;;;;;;;;1039200;28;930;-41
2022/03/04 00:16:58;;;;;;;;;;;;;;;;;;1039674;28;861;-41
2022/03/04 00:17:28;;;;;;;;;;;;;;;;;;1039619;28;948;-42
2022/03/04 00:17:58;;;;;;;;;;;;;;;;;;1039400;28;873;-41
2022/03/04 00:18:29;;;;;;;;;;;;;;;;;;1039686;28;985;-41
2022/03/04 00:19:11;;;;;;;;;;;;;;;;;;1039583;28;867;-42
2022/03/04 00:19:42;;;;;;;;;;;;;;;;;;1039645;28;886;-42
2022/03/04 00:20:12;;;;;;;;;;;;;;;;;;1039494;28;957;-42
2022/03/04 00:20:42;;;;;;;;;;;;;;;;;;1039584;28;897;-41
2022/03/04 00:21:13;;;;;;;;;;;;;;;;;;1039590;28;894;-41
2022/03/04 00:21:47;;;;;;;;;;;;;;;;;;1039529;28;850;-42
2022/03/04 00:22:17;;;;;;;;;;;;;;;;;;1039703;28;850;-43
2022/03/04 00:22:48;;;;;;;;;;;;;;;;;;1039496;28;890;-42
2022/03/04 00:23:18;;;;;;;;;;;;;;;;;;1039604;28;948;-42
2022/03/04 00:23:49;;;;;;;;;;;;;;;;;;1039030;28;854;-42
2022/03/04 00:24:21;;;;;;;;;;;;;;;;;;1039555;28;854;-41
2022/03/04 00:24:52;;;;;;;;;;;;;;;;;;1039552;28;925;-42
2022/03/04 00:25:22;;;;;;;;;;;;;;;;;;1042619;28;1164;-41
2022/03/04 00:25:53;;;;;;;;;;;;;;;;;;1043555;28;846;-42
2022/03/04 00:26:23;;;;;;;;;;;;;;;;;;1043710;28;889;-42
2022/03/04 00:26:54;;;;;;;;;;;;;;;;;;1043481;28;993;-43
2022/03/04 00:27:24;;;;;;;;;;;;;;;;;;1043718;28;933;-42
2022/03/04 00:27:54;;;;;;;;;;;;;;;;;;1043393;28;962;-42
2022/03/04 00:28:26;;;;;;;;;;;;;;;;;;1043600;28;858;-42
2022/03/04 00:28:56;;;;;;;;;;;;;;;;;;1043639;28;839;-42
2022/03/04 00:29:26;;;;;;;;;;;;;;;;;;1043787;28;1361;-42
2022/03/04 00:29:57;;;;;;;;;;;;;;;;;;1043599;28;779;-42
2022/03/04 00:30:28;;;;;;;;;;;;;;;;;;1043122;28;1306;-42
2022/03/04 00:30:59;;;;;;;;;;;;;;;;;;1042623;28;882;-42
2022/03/04 00:31:29;;;;;;;;;;;;;;;;;;1043327;28;854;-42
2022/03/04 00:32:00;;;;;;;;;;;;;;;;;;1043295;28;1571;-42
2022/03/04 00:32:30;;;;;;;;;;;;;;;;;;1043568;28;1162;-42
2022/03/04 00:33:01;;;;;;;;;;;;;;;;;;1043614;28;846;-42
2022/03/04 00:33:31;;;;;;;;;;;;;;;;;;1043484;28;921;-42
2022/03/04 00:34:02;;;;;;;;;;;;;;;;;;1043540;28;1910;-42
2022/03/04 00:34:32;;;;;;;;;;;;;;;;;;1043694;28;807;-42
2022/03/04 00:35:04;;;;;;;;;;;;;;;;;;1043475;28;826;-42
2022/03/04 00:35:34;;;;;;;;;;;;;;;;;;1039130;28;972;-42
2022/03/04 00:36:04;;;;;;;;;;;;;;;;;;1039257;28;878;-41
2022/03/04 00:36:35;;;;;;;;;;;;;;;;;;1039096;28;886;-42
2022/03/04 00:37:06;;;;;;;;;;;;;;;;;;1039169;28;912;-41
2022/03/04 00:37:36;;;;;;;;;;;;;;;;;;1043332;28;822;-42
2022/03/04 00:38:06;;;;;;;;;;;;;;;;;;1043522;28;898;-41
2022/03/04 00:38:37;;;;;;;;;;;;;;;;;;1043362;28;795;-42
2022/03/04 00:39:09;;;;;;;;;;;;;;;;;;1043416;28;810;-41
2022/03/04 00:39:40;;;;;;;;;;;;;;;;;;1039412;28;905;-41
2022/03/04 00:40:11;;;;;;;;;;;;;;;;;;1039094;28;874;-41
2022/03/04 00:40:41;;;;;;;;;;;;;;;;;;1039269;28;1559;-42
2022/03/04 00:41:11;;;;;;;;;;;;;;;;;;1039167;28;1031;-42
2022/03/04 00:41:42;;;;;;;;;;;;;;;;;;1043290;28;925;-41
2022/03/04 00:42:12;;;;;;;;;;;;;;;;;;1043272;28;940;-42
2022/03/04 00:42:42;;;;;;;;;;;;;;;;;;1043658;28;779;-41
2022/03/04 00:43:13;;;;;;;;;;;;;;;;;;1043361;28;913;-42
2022/03/04 00:43:43;;;;;;;;;;;;;;;;;;1043702;28;928;-42
2022/03/04 00:44:14;;;;;;;;;;;;;;;;;;1043493;28;842;-42
2022/03/04 00:44:45;;;;;;;;;;;;;;;;;;1043704;28;913;-42
2022/03/04 00:45:15;;;;;;;;;;;;;;;;;;1043341;28;1232;-41
2022/03/04 00:45:45;;;;;;;;;;;;;;;;;;1042948;28;1023;-42
2022/03/04 00:46:16;;;;;;;;;;;;;;;;;;1043668;28;838;-42
2022/03/04 00:46:47;;;;;;;;;;;;;;;;;;1043524;28;894;-42
2022/03/04 00:47:17;;;;;;;;;;;;;;;;;;1043650;28;898;-41
2022/03/04 00:47:47;;;;;;;;;;;;;;;;;;1043486;28;1240;-42
2022/03/04 00:48:18;;;;;;;;;;;;;;;;;;1043578;28;897;-41
2022/03/04 00:48:48;;;;;;;;;;;;;;;;;;1043652;28;886;-42
2022/03/04 00:49:19;;;;;;;;;;;;;;;;;;1043639;28;946;-42
2022/03/04 00:49:49;;;;;;;;;;;;;;;;;;1043302;28;981;-41
2022/03/04 00:50:20;;;;;;;;;;;;;;;;;;1043657;28;1062;-42
2022/03/04 00:50:50;;;;;;;;;;;;;;;;;;1043440;28;893;-41
2022/03/04 00:51:20;;;;;;;;;;;;;;;;;;1043701;28;862;-41
2022/03/04 00:51:51;;;;;;;;;;;;;;;;;;1043483;28;899;-42
2022/03/04 00:52:21;;;;;;;;;;;;;;;;;;1043648;28;830;-42
2022/03/04 00:52:51;;;;;;;;;;;;;;;;;;1043534;28;964;-42
2022/03/04 00:53:22;;;;;;;;;;;;;;;;;;1042885;28;926;-41
2022/03/04 00:53:52;;;;;;;;;;;;;;;;;;1043510;28;1940;-42
2022/03/04 00:54:22;;;;;;;;;;;;;;;;;;1043608;28;894;-42
2022/03/04 00:54:53;;;;;;;;;;;;;;;;;;1043513;28;838;-42
2022/03/04 00:55:24;;;;;;;;;;;;;;;;;;1043703;28;945;-42
2022/03/04 00:55:54;;;;;;;;;;;;;;;;;;1040215;28;1062;-41
2022/03/04 00:56:24;;;;;;;;;;;;;;;;;;1039747;28;921;-42
2022/03/04 00:56:55;;;;;;;;;;;;;;;;;;1040340;28;934;-40
2022/03/04 00:57:26;;;;;;;;;;;;;;;;;;1040226;28;914;-39
2022/03/04 00:57:56;;;;;;;;;;;;;;;;;;1040033;28;878;-39
2022/03/04 00:58:26;;;;;;;;;;;;;;;;;;1040309;28;982;-42
2022/03/04 00:58:57;;;;;;;;;;;;;;;;;;1040302;28;834;-42
2022/03/04 00:59:27;;;;;;;;;;;;;;;;;;1040367;28;854;-41
2022/03/04 00:59:57;;;;;;;;;;;;;;;;;;1040224;28;889;-41
2022/03/04 01:00:28;;;;;;;;;;;;;;;;;;1039572;28;834;-42
2022/03/04 01:00:58;;;;;;;;;;;;;;;;;;1040454;28;831;-42
2022/03/04 01:01:29;;;;;;;;;;;;;;;;;;1040193;28;834;-42
2022/03/04 01:01:59;;;;;;;;;;;;;;;;;;1040346;28;780;-42
2022/03/04 01:02:30;;;;;;;;;;;;;;;;;;1040227;28;894;-41
2022/03/04 01:03:01;;;;;;;;;;;;;;;;;;1040216;28;890;-42
2022/03/04 01:03:32;;;;;;;;;;;;;;;;;;1040271;28;858;-41
2022/03/04 01:04:03;;;;;;;;;;;;;;;;;;1040199;28;1008;-41
2022/03/04 01:04:34;;;;;;;;;;;;;;;;;;1040233;28;1144;-42
2022/03/04 01:05:04;;;;;;;;;;;;;;;;;;1040336;28;945;-42
2022/03/04 01:05:34;;;;;;;;;;;;;;;;;;1040156;28;949;-42
2022/03/04 01:06:08;;;;;;;;;;;;;;;;;;1040410;28;890;-41
2022/03/04 01:06:39;;;;;;;;;;;;;;;;;;1040134;28;965;-42
2022/03/04 01:07:09;;;;;;;;;;;;;;;;;;1040219;28;839;-42
2022/03/04 01:07:39;;;;;;;;;;;;;;;;;;1040222;28;898;-42
2022/03/04 01:08:10;;;;;;;;;;;;;;;;;;1039473;28;1228;-41
2022/03/04 01:08:40;;;;;;;;;;;;;;;;;;1040247;28;945;-41
2022/03/04 01:09:11;;;;;;;;;;;;;;;;;;1040278;28;902;-41
2022/03/04 01:09:41;;;;;;;;;;;;;;;;;;1040355;28;874;-41
2022/03/04 01:10:12;;;;;;;;;;;;;;;;;;1040243;28;929;-42
2022/03/04 01:10:43;;;;;;;;;;;;;;;;;;1040235;28;788;-42
2022/03/04 01:11:14;;;;;;;;;;;;;;;;;;1040290;28;865;-42
2022/03/04 01:11:44;;;;;;;;;;;;;;;;;;1040338;28;787;-42
2022/03/04 01:12:14;;;;;;;;;;;;;;;;;;1040109;28;784;-41
2022/03/04 01:12:46;;;;;;;;;;;;;;;;;;1040676;28;984;-42
2022/03/04 01:13:17;;;;;;;;;;;;;;;;;;1040695;28;834;-42
2022/03/04 01:13:47;;;;;;;;;;;;;;;;;;1040686;28;1914;-41
2022/03/04 01:14:18;;;;;;;;;;;;;;;;;;1040884;28;1093;-41
2022/03/04 01:14:51;;;;;;;;;;;;;;;;;;1040689;28;823;-42
2022/03/04 01:15:23;;;;;;;;;;;;;;;;;;1040306;28;830;-42
2022/03/04 01:15:54;;;;;;;;;;;;;;;;;;1040711;28;1422;-42
2022/03/04 01:16:25;;;;;;;;;;;;;;;;;;1040877;28;894;-41
2022/03/04 01:16:55;;;;;;;;;;;;;;;;;;1040564;28;961;-41
2022/03/04 01:17:26;;;;;;;;;;;;;;;;;;1040746;28;1120;-41
2022/03/04 01:17:56;;;;;;;;;;;;;;;;;;1040768;28;826;-42
2022/03/04 01:18:27;;;;;;;;;;;;;;;;;;1040770;28;913;-43
2022/03/04 01:18:58;;;;;;;;;;;;;;;;;;1040519;28;2042;-42
2022/03/04 01:19:29;;;;;;;;;;;;;;;;;;1040417;28;1157;-41
2022/03/04 01:20:00;;;;;;;;;;;;;;;;;;1040087;28;874;-41
2022/03/04 01:20:31;;;;;;;;;;;;;;;;;;1040323;28;862;-41
2022/03/04 01:21:01;;;;;;;;;;;;;;;;;;1040193;28;901;-42
2022/03/04 01:21:32;;;;;;;;;;;;;;;;;;1040079;28;881;-42
2022/03/04 01:22:03;;;;;;;;;;;;;;;;;;1040276;28;794;-42
2022/03/04 01:22:33;;;;;;;;;;;;;;;;;;1039912;28;997;-42
2022/03/04 01:23:03;;;;;;;;;;;;;;;;;;1039791;28;1027;-42
2022/03/04 01:23:34;;;;;;;;;;;;;;;;;;1040256;28;811;-41
2022/03/04 01:24:05;;;;;;;;;;;;;;;;;;1040165;28;942;-41
2022/03/04 01:24:36;;;;;;;;;;;;;;;;;;1040254;28;996;-41
2022/03/04 01:25:07;;;;;;;;;;;;;;;;;;1040845;28;1232;-41
2022/03/04 01:25:37;;;;;;;;;;;;;;;;;;1044529;28;815;-41
2022/03/04 01:26:08;;;;;;;;;;;;;;;;;;1044282;28;881;-42
2022/03/04 01:26:38;;;;;;;;;;;;;;;;;;1044373;28;783;-42
2022/03/04 01:27:08;;;;;;;;;;;;;;;;;;1044151;28;869;-42
2022/03/04 01:27:39;;;;;;;;;;;;;;;;;;1044175;28;865;-42
2022/03/04 01:28:09;;;;;;;;;;;;;;;;;;1044166;28;853;-42
2022/03/04 01:28:40;;;;;;;;;;;;;;;;;;1044409;28;817;-43
2022/03/04 01:29:10;;;;;;;;;;;;;;;;;;1044209;28;901;-42
2022/03/04 01:29:40;;;;;;;;;;;;;;;;;;1044379;28;905;-42
2022/03/04 01:30:11;;;;;;;;;;;;;;;;;;1043589;28;1224;-41
2022/03/04 01:30:41;;;;;;;;;;;;;;;;;;1044347;28;1000;-42
2022/03/04 01:31:12;;;;;;;;;;;;;;;;;;1044194;28;766;-43
2022/03/04 01:31:43;;;;;;;;;;;;;;;;;;1044367;28;810;-41
2022/03/04 01:32:13;;;;;;;;;;;;;;;;;;1044277;28;944;-42
2022/03/04 01:32:43;;;;;;;;;;;;;;;;;;1044449;28;1028;-42
2022/03/04 01:33:14;;;;;;;;;;;;;;;;;;1044165;28;905;-42
2022/03/04 01:33:44;;;;;;;;;;;;;;;;;;1044225;28;1987;-42
2022/03/04 01:34:14;;;;;;;;;;;;;;;;;;1044092;28;921;-42
2022/03/04 01:34:45;;;;;;;;;;;;;;;;;;1044398;28;885;-42
2022/03/04 01:35:15;;;;;;;;;;;;;;;;;;1044263;28;909;-42
2022/03/04 01:35:45;;;;;;;;;;;;;;;;;;1044242;28;850;-42
2022/03/04 01:36:16;;;;;;;;;;;;;;;;;;1044303;28;936;-42
2022/03/04 01:36:46;;;;;;;;;;;;;;;;;;1044286;28;956;-42
2022/03/04 01:37:17;;;;;;;;;;;;;;;;;;1044178;28;1366;-42
2022/03/04 01:37:47;;;;;;;;;;;;;;;;;;1043394;28;968;-42
2022/03/04 01:38:17;;;;;;;;;;;;;;;;;;1044221;28;957;-41
2022/03/04 01:38:48;;;;;;;;;;;;;;;;;;1044288;28;865;-41
2022/03/04 01:39:19;;;;;;;;;;;;;;;;;;1044335;28;865;-42
2022/03/04 01:39:49;;;;;;;;;;;;;;;;;;1044137;28;924;-41
2022/03/04 01:40:19;;;;;;;;;;;;;;;;;;1044339;28;802;-41
2022/03/04 01:40:50;;;;;;;;;;;;;;;;;;1044302;28;1063;-41
2022/03/04 01:41:20;;;;;;;;;;;;;;;;;;1044206;28;945;-41
2022/03/04 01:41:50;;;;;;;;;;;;;;;;;;1044298;28;968;-41
2022/03/04 01:42:21;;;;;;;;;;;;;;;;;;1044136;28;881;-42
2022/03/04 01:42:51;;;;;;;;;;;;;;;;;;1043667;28;976;-41
2022/03/04 01:43:22;;;;;;;;;;;;;;;;;;1036058;28;873;-41
2022/03/04 01:43:52;;;;;;;;;;;;;;;;;;1035944;28;985;-41
2022/03/04 01:44:23;;;;;;;;;;;;;;;;;;1030926;28;1767;-41
2022/03/04 01:44:53;;;;;;;;;;;;;;;;;;1038865;28;985;-41
2022/03/04 01:45:24;;;;;;;;;;;;;;;;;;1037955;28;1237;-41
2022/03/04 01:45:54;;;;;;;;;;;;;;;;;;1031479;28;993;-42
2022/03/04 01:46:27;;;;;;;;;;;;;;;;;;1035183;28;838;-41
2022/03/04 01:46:58;;;;;;;;;;;;;;;;;;1035986;28;815;-41
2022/03/04 01:47:28;;;;;;;;;;;;;;;;;;1035903;28;914;-41
2022/03/04 01:47:58;;;;;;;;;;;;;;;;;;1035532;28;835;-41
2022/03/04 01:48:28;;;;;;;;;;;;;;;;;;1035262;28;803;-41
2022/03/04 01:48:59;;;;;;;;;;;;;;;;;;1035925;28;930;-41
2022/03/04 01:49:29;;;;;;;;;;;;;;;;;;1035869;28;1633;-41
2022/03/04 01:49:59;;;;;;;;;;;;;;;;;;1035960;28;1008;-41
2022/03/04 01:50:30;;;;;;;;;;;;;;;;;;1035747;28;929;-41
2022/03/04 01:51:01;;;;;;;;;;;;;;;;;;1036174;28;838;-42
2022/03/04 01:51:31;;;;;;;;;;;;;;;;;;1035798;28;970;-42
2022/03/04 01:52:02;;;;;;;;;;;;;;;;;;1035896;28;1387;-42
2022/03/04 01:52:32;;;;;;;;;;;;;;;;;;1035883;28;766;-42
2022/03/04 01:53:03;;;;;;;;;;;;;;;;;;1035916;28;933;-42
2022/03/04 01:53:33;;;;;;;;;;;;;;;;;;1035983;28;1008;-41
2022/03/04 01:54:03;;;;;;;;;;;;;;;;;;1035941;28;1910;-41
2022/03/04 01:54:34;;;;;;;;;;;;;;;;;;1035795;28;981;-42
2022/03/04 01:55:06;;;;;;;;;;;;;;;;;;1036164;28;947;-42
2022/03/04 01:55:36;;;;;;;;;;;;;;;;;;1035332;28;925;-42
2022/03/04 01:56:07;;;;;;;;;;;;;;;;;;1033316;28;1067;-42
2022/03/04 01:56:37;;;;;;;;;;;;;;;;;;1031914;28;849;-41
2022/03/04 01:57:08;;;;;;;;;;;;;;;;;;1031903;28;910;-43
2022/03/04 01:57:38;;;;;;;;;;;;;;;;;;1031866;28;870;-42
2022/03/04 01:58:08;;;;;;;;;;;;;;;;;;1031554;28;930;-42
2022/03/04 01:58:39;;;;;;;;;;;;;;;;;;1031660;28;910;-41
2022/03/04 01:59:09;;;;;;;;;;;;;;;;;;1027420;28;1171;-42
2022/03/04 01:59:41;;;;;;;;;;;;;;;;;;1027433;28;918;-42
2022/03/04 02:00:12;;;;;;;;;;;;;;;;;;1027701;28;795;-42
2022/03/04 02:00:43;;;;;;;;;;;;;;;;;;1027820;28;1452;-42
2022/03/04 02:01:13;;;;;;;;;;;;;;;;;;1032014;28;831;-41
2022/03/04 02:01:43;;;;;;;;;;;;;;;;;;1031854;28;1001;-42
2022/03/04 02:02:14;;;;;;;;;;;;;;;;;;1031970;28;772;-41
2022/03/04 02:02:45;;;;;;;;;;;;;;;;;;1031910;28;903;-42
2022/03/04 02:03:15;;;;;;;;;;;;;;;;;;1031324;28;974;-41
2022/03/04 02:03:45;;;;;;;;;;;;;;;;;;1031765;28;969;-42
2022/03/04 02:04:19;;;;;;;;;;;;;;;;;;1032077;28;953;-43
2022/03/04 02:04:50;;;;;;;;;;;;;;;;;;1031829;28;1030;-43
2022/03/04 02:05:20;;;;;;;;;;;;;;;;;;1031941;28;887;-41
2022/03/04 02:05:50;;;;;;;;;;;;;;;;;;1031915;28;847;-42
2022/03/04 02:06:21;;;;;;;;;;;;;;;;;;1031942;28;831;-42
2022/03/04 02:06:52;;;;;;;;;;;;;;;;;;1031915;28;787;-42
2022/03/04 02:07:22;;;;;;;;;;;;;;;;;;1031788;28;894;-42
2022/03/04 02:07:53;;;;;;;;;;;;;;;;;;1031743;28;1132;-42
2022/03/04 02:08:23;;;;;;;;;;;;;;;;;;1031369;28;928;-41
2022/03/04 02:08:53;;;;;;;;;;;;;;;;;;1031779;28;898;-42
2022/03/04 02:09:24;;;;;;;;;;;;;;;;;;1031821;28;859;-42
2022/03/04 02:09:54;;;;;;;;;;;;;;;;;;1031855;28;879;-42
2022/03/04 02:10:25;;;;;;;;;;;;;;;;;;1031320;28;949;-41
2022/03/04 02:10:55;;;;;;;;;;;;;;;;;;1031943;28;910;-42
2022/03/04 02:11:26;;;;;;;;;;;;;;;;;;1031812;28;877;-41
2022/03/04 02:11:56;;;;;;;;;;;;;;;;;;1031850;28;922;-42
2022/03/04 02:12:27;;;;;;;;;;;;;;;;;;1031927;28;947;-42
2022/03/04 02:12:58;;;;;;;;;;;;;;;;;;1031835;28;885;-42
2022/03/04 02:13:28;;;;;;;;;;;;;;;;;;1031901;28;1151;-42
2022/03/04 02:13:58;;;;;;;;;;;;;;;;;;1031705;28;1902;-42
2022/03/04 02:14:28;;;;;;;;;;;;;;;;;;1031933;28;943;-42
2022/03/04 02:14:59;;;;;;;;;;;;;;;;;;1031884;28;937;-41
2022/03/04 02:15:29;;;;;;;;;;;;;;;;;;1031928;28;803;-42
2022/03/04 02:16:00;;;;;;;;;;;;;;;;;;1031805;28;949;-41
2022/03/04 02:16:50;;;;;;;;;;;;;;;;;;1032036;28;832;-42
2022/03/04 02:17:20;;;;;;;;;;;;;;;;;;1031338;28;1866;-41
2022/03/04 02:17:51;;;;;;;;;;;;;;;;;;1031115;28;937;-41
2022/03/04 02:18:21;;;;;;;;;;;;;;;;;;1031881;28;815;-41
2022/03/04 02:18:51;;;;;;;;;;;;;;;;;;1031829;28;870;-42
2022/03/04 02:19:23;;;;;;;;;;;;;;;;;;1031847;28;827;-42
2022/03/04 02:19:54;;;;;;;;;;;;;;;;;;1031817;28;815;-42
2022/03/04 02:20:27;;;;;;;;;;;;;;;;;;1031901;28;941;-41
2022/03/04 02:20:59;;;;;;;;;;;;;;;;;;1031855;28;910;-42
2022/03/04 02:21:31;;;;;;;;;;;;;;;;;;1032080;28;867;-42
2022/03/04 02:22:02;;;;;;;;;;;;;;;;;;1031715;28;871;-42
2022/03/04 02:22:32;;;;;;;;;;;;;;;;;;1031789;28;946;-41
2022/03/04 02:23:03;;;;;;;;;;;;;;;;;;1031617;28;927;-42
2022/03/04 02:23:33;;;;;;;;;;;;;;;;;;1031650;28;898;-42
2022/03/04 02:24:04;;;;;;;;;;;;;;;;;;1031478;28;915;-42
2022/03/04 02:24:34;;;;;;;;;;;;;;;;;;1031802;28;1725;-41
2022/03/04 02:25:05;;;;;;;;;;;;;;;;;;1031774;28;1119;-41
2022/03/04 02:25:36;;;;;;;;;;;;;;;;;;1035716;28;818;-41
2022/03/04 02:26:06;;;;;;;;;;;;;;;;;;1035744;28;878;-42
2022/03/04 02:26:36;;;;;;;;;;;;;;;;;;1035783;28;933;-41
2022/03/04 02:27:08;;;;;;;;;;;;;;;;;;1035886;28;815;-42
2022/03/04 02:27:38;;;;;;;;;;;;;;;;;;1035677;28;827;-41
2022/03/04 02:28:09;;;;;;;;;;;;;;;;;;1035706;28;1118;-42
2022/03/04 02:28:39;;;;;;;;;;;;;;;;;;1035962;28;933;-42
2022/03/04 02:29:09;;;;;;;;;;;;;;;;;;1031504;28;815;-42
2022/03/04 02:29:40;;;;;;;;;;;;;;;;;;1031433;28;898;-41
2022/03/04 02:30:10;;;;;;;;;;;;;;;;;;1031457;28;1309;-41
2022/03/04 02:30:42;;;;;;;;;;;;;;;;;;1031512;28;867;-41
2022/03/04 02:31:16;;;;;;;;;;;;;;;;;;1035894;28;977;-41
2022/03/04 02:31:47;;;;;;;;;;;;;;;;;;1035757;28;858;-41
2022/03/04 02:32:18;;;;;;;;;;;;;;;;;;1035951;28;937;-42
2022/03/04 02:32:48;;;;;;;;;;;;;;;;;;1035184;28;811;-41
2022/03/04 02:33:18;;;;;;;;;;;;;;;;;;1035837;28;954;-41
2022/03/04 02:33:49;;;;;;;;;;;;;;;;;;1035773;28;1922;-41
2022/03/04 02:34:20;;;;;;;;;;;;;;;;;;1035740;28;969;-41
2022/03/04 02:34:50;;;;;;;;;;;;;;;;;;1035923;28;792;-41
2022/03/04 02:35:20;;;;;;;;;;;;;;;;;;1035771;28;934;-41
2022/03/04 02:35:51;;;;;;;;;;;;;;;;;;1035862;28;996;-41
2022/03/04 02:36:22;;;;;;;;;;;;;;;;;;1031404;28;775;-42
2022/03/04 02:36:52;;;;;;;;;;;;;;;;;;1031408;28;843;-41
2022/03/04 02:37:23;;;;;;;;;;;;;;;;;;1031465;28;890;-42
2022/03/04 02:37:53;;;;;;;;;;;;;;;;;;1031548;28;835;-41
2022/03/04 02:38:23;;;;;;;;;;;;;;;;;;1035658;28;938;-41
2022/03/04 02:38:54;;;;;;;;;;;;;;;;;;1035885;28;933;-41
2022/03/04 02:39:25;;;;;;;;;;;;;;;;;;1035706;28;891;-41
2022/03/04 02:39:55;;;;;;;;;;;;;;;;;;1035243;28;943;-40
2022/03/04 02:40:25;;;;;;;;;;;;;;;;;;1035791;28;887;-41
2022/03/04 02:40:56;;;;;;;;;;;;;;;;;;1035714;28;933;-41
2022/03/04 02:41:26;;;;;;;;;;;;;;;;;;1035754;28;907;-40
2022/03/04 02:41:56;;;;;;;;;;;;;;;;;;1035861;28;828;-41
2022/03/04 02:42:27;;;;;;;;;;;;;;;;;;1031323;28;1122;-41
2022/03/04 02:42:57;;;;;;;;;;;;;;;;;;1031438;28;788;-42
2022/03/04 02:43:27;;;;;;;;;;;;;;;;;;1031245;28;917;-41
2022/03/04 02:43:58;;;;;;;;;;;;;;;;;;1031480;28;982;-41
2022/03/04 02:44:28;;;;;;;;;;;;;;;;;;1035670;28;936;-41
2022/03/04 02:44:58;;;;;;;;;;;;;;;;;;1035754;28;906;-41
2022/03/04 02:45:29;;;;;;;;;;;;;;;;;;1035712;28;1092;-41
2022/03/04 02:46:00;;;;;;;;;;;;;;;;;;1035761;28;744;-41
2022/03/04 02:46:30;;;;;;;;;;;;;;;;;;1035723;28;855;-41
2022/03/04 02:47:00;;;;;;;;;;;;;;;;;;1035755;28;808;-42
2022/03/04 02:47:31;;;;;;;;;;;;;;;;;;1035088;28;857;-42
2022/03/04 02:48:01;;;;;;;;;;;;;;;;;;1035882;28;831;-41
2022/03/04 02:48:31;;;;;;;;;;;;;;;;;;1035845;28;903;-42
2022/03/04 02:49:04;;;;;;;;;;;;;;;;;;1035705;28;980;-41
2022/03/04 02:49:35;;;;;;;;;;;;;;;;;;1035837;28;790;-42
2022/03/04 02:50:05;;;;;;;;;;;;;;;;;;1035601;28;934;-42
2022/03/04 02:50:36;;;;;;;;;;;;;;;;;;1035876;28;838;-42
2022/03/04 02:51:06;;;;;;;;;;;;;;;;;;1035811;28;894;-41
2022/03/04 02:51:37;;;;;;;;;;;;;;;;;;1035677;28;801;-41
2022/03/04 02:52:08;;;;;;;;;;;;;;;;;;1035786;28;902;-41
2022/03/04 02:52:38;;;;;;;;;;;;;;;;;;1035697;28;820;-41
2022/03/04 02:53:09;;;;;;;;;;;;;;;;;;1031499;28;933;-42
2022/03/04 02:53:39;;;;;;;;;;;;;;;;;;1031331;28;804;-41
2022/03/04 02:54:10;;;;;;;;;;;;;;;;;;1031300;28;1902;-42
2022/03/04 02:54:40;;;;;;;;;;;;;;;;;;1031015;28;918;-42
2022/03/04 02:55:11;;;;;;;;;;;;;;;;;;1035613;28;930;-41
2022/03/04 02:55:42;;;;;;;;;;;;;;;;;;1035726;28;898;-41
2022/03/04 02:56:12;;;;;;;;;;;;;;;;;;1034312;28;1173;-41
2022/03/04 02:56:43;;;;;;;;;;;;;;;;;;1031637;28;882;-41
2022/03/04 02:57:13;;;;;;;;;;;;;;;;;;1031823;28;942;-41
2022/03/04 02:57:45;;;;;;;;;;;;;;;;;;1031509;28;831;-41
2022/03/04 02:58:15;;;;;;;;;;;;;;;;;;1031730;28;933;-41
2022/03/04 02:58:46;;;;;;;;;;;;;;;;;;1031699;28;827;-41
2022/03/04 02:59:16;;;;;;;;;;;;;;;;;;1031709;28;878;-41
2022/03/04 02:59:46;;;;;;;;;;;;;;;;;;1031537;28;854;-41
2022/03/04 03:00:17;;;;;;;;;;;;;;;;;;1031838;28;854;-41
2022/03/04 03:00:47;;;;;;;;;;;;;;;;;;1031570;28;855;-41
2022/03/04 03:01:18;;;;;;;;;;;;;;;;;;1031697;28;957;-42
2022/03/04 03:01:48;;;;;;;;;;;;;;;;;;1031614;28;799;-41
2022/03/04 03:02:18;;;;;;;;;;;;;;;;;;1031179;28;976;-41
2022/03/04 03:02:48;;;;;;;;;;;;;;;;;;1031803;28;1073;-41
2022/03/04 03:03:19;;;;;;;;;;;;;;;;;;1031574;28;958;-42
2022/03/04 03:03:49;;;;;;;;;;;;;;;;;;1031751;28;977;-42
2022/03/04 03:04:19;;;;;;;;;;;;;;;;;;1031697;28;779;-41
2022/03/04 03:04:50;;;;;;;;;;;;;;;;;;1031627;28;816;-41
2022/03/04 03:05:20;;;;;;;;;;;;;;;;;;1031706;28;1050;-41
2022/03/04 03:05:51;;;;;;;;;;;;;;;;;;1031700;28;950;-41
2022/03/04 03:06:21;;;;;;;;;;;;;;;;;;1031647;28;587;-42
2022/03/04 03:06:52;;;;;;;;;;;;;;;;;;1031756;28;823;-42
2022/03/04 03:07:22;;;;;;;;;;;;;;;;;;1031613;28;839;-41
2022/03/04 03:07:52;;;;;;;;;;;;;;;;;;1031560;28;829;-42
2022/03/04 03:08:23;;;;;;;;;;;;;;;;;;1031572;28;1441;-42
2022/03/04 03:08:53;;;;;;;;;;;;;;;;;;1031661;28;792;-42
2022/03/04 03:09:23;;;;;;;;;;;;;;;;;;1031780;28;795;-41
2022/03/04 03:09:54;;;;;;;;;;;;;;;;;;1031023;28;890;-42
2022/03/04 03:10:24;;;;;;;;;;;;;;;;;;1031661;28;843;-41
2022/03/04 03:10:55;;;;;;;;;;;;;;;;;;1031631;28;902;-40
2022/03/04 03:11:25;;;;;;;;;;;;;;;;;;1031641;28;867;-41
2022/03/04 03:11:55;;;;;;;;;;;;;;;;;;1031715;28;875;-40
2022/03/04 03:12:26;;;;;;;;;;;;;;;;;;1031598;28;827;-40
2022/03/04 03:12:56;;;;;;;;;;;;;;;;;;1031684;28;866;-40
2022/03/04 03:13:27;;;;;;;;;;;;;;;;;;1031719;28;1009;-41
2022/03/04 03:13:57;;;;;;;;;;;;;;;;;;1031361;28;1906;-40
2022/03/04 03:14:27;;;;;;;;;;;;;;;;;;1031610;28;930;-41
2022/03/04 03:14:58;;;;;;;;;;;;;;;;;;1031713;28;886;-41
2022/03/04 03:15:28;;;;;;;;;;;;;;;;;;1031566;28;784;-41
2022/03/04 03:15:58;;;;;;;;;;;;;;;;;;1031608;28;933;-41
2022/03/04 03:16:29;;;;;;;;;;;;;;;;;;1031621;28;958;-40
2022/03/04 03:16:59;;;;;;;;;;;;;;;;;;1030984;28;1013;-41
2022/03/04 03:17:29;;;;;;;;;;;;;;;;;;1031654;28;859;-41
2022/03/04 03:18:00;;;;;;;;;;;;;;;;;;1031497;28;866;-41
2022/03/04 03:18:30;;;;;;;;;;;;;;;;;;1031767;28;772;-42
2022/03/04 03:19:01;;;;;;;;;;;;;;;;;;1031525;28;913;-40
2022/03/04 03:19:31;;;;;;;;;;;;;;;;;;1031509;28;1028;-40
2022/03/04 03:20:03;;;;;;;;;;;;;;;;;;1030985;28;922;-40
2022/03/04 03:20:33;;;;;;;;;;;;;;;;;;1031289;28;783;-40
2022/03/04 03:21:03;;;;;;;;;;;;;;;;;;1031352;28;917;-40
2022/03/04 03:21:34;;;;;;;;;;;;;;;;;;1031769;28;957;-40
2022/03/04 03:22:04;;;;;;;;;;;;;;;;;;1031501;28;828;-41
2022/03/04 03:22:35;;;;;;;;;;;;;;;;;;1031692;28;910;-41
2022/03/04 03:23:05;;;;;;;;;;;;;;;;;;1031351;28;953;-41
2022/03/04 03:23:36;;;;;;;;;;;;;;;;;;1031794;28;1012;-40
2022/03/04 03:24:06;;;;;;;;;;;;;;;;;;1031518;28;905;-41
2022/03/04 03:24:36;;;;;;;;;;;;;;;;;;1031127;28;866;-41
2022/03/04 03:25:07;;;;;;;;;;;;;;;;;;1032337;28;1200;-41
2022/03/04 03:25:38;;;;;;;;;;;;;;;;;;1035713;28;806;-41
2022/03/04 03:26:08;;;;;;;;;;;;;;;;;;1035560;28;950;-41
2022/03/04 03:26:38;;;;;;;;;;;;;;;;;;1035726;28;921;-41
2022/03/04 03:27:09;;;;;;;;;;;;;;;;;;1035135;28;843;-41
2022/03/04 03:27:40;;;;;;;;;;;;;;;;;;1035271;28;914;-41
2022/03/04 03:28:10;;;;;;;;;;;;;;;;;;1035325;28;938;-40
2022/03/04 03:28:41;;;;;;;;;;;;;;;;;;1035287;28;830;-41
2022/03/04 03:29:11;;;;;;;;;;;;;;;;;;1035595;28;819;-41
2022/03/04 03:29:41;;;;;;;;;;;;;;;;;;1035474;28;1021;-41
2022/03/04 03:30:12;;;;;;;;;;;;;;;;;;1035677;28;1383;-41
2022/03/04 03:30:42;;;;;;;;;;;;;;;;;;1035671;28;1144;-41
2022/03/04 03:31:13;;;;;;;;;;;;;;;;;;1035499;28;886;-40
2022/03/04 03:31:43;;;;;;;;;;;;;;;;;;1035117;28;901;-41
2022/03/04 03:32:14;;;;;;;;;;;;;;;;;;1035507;28;854;-41
2022/03/04 03:32:44;;;;;;;;;;;;;;;;;;1035706;28;933;-40
2022/03/04 03:33:14;;;;;;;;;;;;;;;;;;1035657;28;838;-40
2022/03/04 03:33:45;;;;;;;;;;;;;;;;;;1035531;28;1085;-40
2022/03/04 03:34:15;;;;;;;;;;;;;;;;;;1035505;28;1910;-41
2022/03/04 03:34:45;;;;;;;;;;;;;;;;;;1035535;28;897;-41
2022/03/04 03:35:16;;;;;;;;;;;;;;;;;;1035593;28;910;-40
2022/03/04 03:35:46;;;;;;;;;;;;;;;;;;1035687;28;867;-40